sensor_id;sensor_type;location;lat;lon;timestamp;temperature;humidity
2653;DHT22;1336;48.692;9.144;2024-03-23T06:00:57;11.60;97.20
2653;DHT22;1336;48.692;9.144;2024-03-23T06:01:49;11.60;97.20
2653;DHT22;1336;48.692;9.144;2024-03-23T06:02:40;11.60;97.20
2653;DHT22;1336;48.692;9.144;2024-03-23T06:03:30;11.60;97.20
2653;DHT22;1336;48.692;9.144;2024-03-23T06:04:21;11.60;97.20
2653;DHT22;1336;48.692;9.144;2024-03-23T06:05:13;11.60;97.20
2653;DHT22;1336;48.692;9.144;2024-03-23T06:06:04;11.60;97.20
2653;DHT22;1336;48.692;9.144;2024-03-23T06:06:54;11.60;97.20
2653;DHT22;1336;48.692;9.144;2024-03-23T06:07:45;11.50;97.20
2653;DHT22;1336;48.692;9.144;2024-03-23T06:08:36;11.50;97.20
2653;DHT22;1336;48.692;9.144;2024-03-23T06:09:28;11.50;97.20
2653;DHT22;1336;48.692;9.144;2024-03-23T06:10:22;11.40;97.20
2653;DHT22;1336;48.692;9.144;2024-03-23T06:11:13;11.40;97.20
2653;DHT22;1336;48.692;9.144;2024-03-23T06:12:04;11.40;97.20
2653;DHT22;1336;48.692;9.144;2024-03-23T06:12:56;11.40;97.20
2653;DHT22;1336;48.692;9.144;2024-03-23T06:13:47;11.30;97.20
2653;DHT22;1336;48.692;9.144;2024-03-23T06:14:37;11.30;97.20
2653;DHT22;1336;48.692;9.144;2024-03-23T06:15:28;11.30;97.20
2653;DHT22;1336;48.692;9.144;2024-03-23T06:16:22;11.30;97.20
2653;DHT22;1336;48.692;9.144;2024-03-23T06:17:15;11.20;97.20
2653;DHT22;1336;48.692;9.144;2024-03-23T06:18:06;11.20;97.20
2653;DHT22;1336;48.692;9.144;2024-03-23T06:18:58;11.20;97.20
2653;DHT22;1336;48.692;9.144;2024-03-23T06:19:49;11.20;97.20
2653;DHT22;1336;48.692;9.144;2024-03-23T06:20:40;11.10;97.20
2653;DHT22;1336;48.692;9.144;2024-03-23T06:21:31;11.10;97.20
2653;DHT22;1336;48.692;9.144;2024-03-23T06:22:22;11.10;97.20
2653;DHT22;1336;48.692;9.144;2024-03-23T06:23:13;11.10;97.20
2653;DHT22;1336;48.692;9.144;2024-03-23T06:24:05;11.10;97.20
2653;DHT22;1336;48.692;9.144;2024-03-23T06:24:57;11.10;97.20
2653;DHT22;1336;48.692;9.144;2024-03-23T06:25:48;11.10;97.20
2653;DHT22;1336;48.692;9.144;2024-03-23T06:26:39;11.10;97.20
2653;DHT22;1336;48.692;9.144;2024-03-23T06:27:29;11.10;97.20
2653;DHT22;1336;48.692;9.144;2024-03-23T06:28:22;11.10;97.20
2653;DHT22;1336;48.692;9.144;2024-03-23T06:29:14;11.10;97.20
2653;DHT22;1336;48.692;9.144;2024-03-23T06:30:06;11.00;97.20
2653;DHT22;1336;48.692;9.144;2024-03-23T06:30:57;11.00;97.20
2653;DHT22;1336;48.692;9.144;2024-03-23T06:31:54;11.00;97.20
2653;DHT22;1336;48.692;9.144;2024-03-23T06:32:45;11.10;97.20
2653;DHT22;1336;48.692;9.144;2024-03-23T06:33:35;11.10;97.20
2653;DHT22;1336;48.692;9.144;2024-03-23T06:34:26;11.10;97.20
2653;DHT22;1336;48.692;9.144;2024-03-23T06:35:18;11.10;97.20
2653;DHT22;1336;48.692;9.144;2024-03-23T06:36:09;11.10;97.20
2653;DHT22;1336;48.692;9.144;2024-03-23T06:37:00;11.10;97.20
2653;DHT22;1336;48.692;9.144;2024-03-23T06:37:51;11.10;97.20
2653;DHT22;1336;48.692;9.144;2024-03-23T06:38:42;11.10;97.20
2653;DHT22;1336;48.692;9.144;2024-03-23T06:39:33;11.10;97.20
2653;DHT22;1336;48.692;9.144;2024-03-23T06:40:25;11.10;97.20
2653;DHT22;1336;48.692;9.144;2024-03-23T06:41:16;11.10;97.20
2653;DHT22;1336;48.692;9.144;2024-03-23T06:42:06;11.10;97.20
2653;DHT22;1336;48.692;9.144;2024-03-23T06:42:58;11.10;97.20
2653;DHT22;1336;48.692;9.144;2024-03-23T06:43:50;11.10;97.20
2653;DHT22;1336;48.692;9.144;2024-03-23T06:44:40;11.00;97.20
2653;DHT22;1336;48.692;9.144;2024-03-23T06:45:31;11.00;97.20
2653;DHT22;1336;48.692;9.144;2024-03-23T06:46:22;11.00;97.20
2653;DHT22;1336;48.692;9.144;2024-03-23T06:47:15;11.00;97.20
2653;DHT22;1336;48.692;9.144;2024-03-23T06:48:06;11.00;97.20
2653;DHT22;1336;48.692;9.144;2024-03-23T06:48:58;11.00;97.20
2653;DHT22;1336;48.692;9.144;2024-03-23T06:49:49;11.00;97.20
2653;DHT22;1336;48.692;9.144;2024-03-23T06:50:39;11.10;97.20
2653;DHT22;1336;48.692;9.144;2024-03-23T06:51:31;11.10;97.20
2653;DHT22;1336;48.692;9.144;2024-03-23T06:52:22;11.10;97.20
2653;DHT22;1336;48.692;9.144;2024-03-23T06:53:13;11.10;97.20
2653;DHT22;1336;48.692;9.144;2024-03-23T06:54:04;11.10;97.20
2653;DHT22;1336;48.692;9.144;2024-03-23T06:54:56;11.10;97.20
2653;DHT22;1336;48.692;9.144;2024-03-23T06:55:50;11.00;97.20
2653;DHT22;1336;48.692;9.144;2024-03-23T06:56:41;11.00;97.20
2653;DHT22;1336;48.692;9.144;2024-03-23T06:57:32;11.00;97.20
2653;DHT22;1336;48.692;9.144;2024-03-23T06:58:24;11.00;97.20
2653;DHT22;1336;48.692;9.144;2024-03-23T06:59:16;11.00;97.20
2653;DHT22;1336;48.692;9.144;2024-03-23T07:00:08;11.10;97.20
2653;DHT22;1336;48.692;9.144;2024-03-23T07:01:00;11.10;97.20
2653;DHT22;1336;48.692;9.144;2024-03-23T07:01:51;11.10;97.20
2653;DHT22;1336;48.692;9.144;2024-03-23T07:02:43;11.10;97.20
2653;DHT22;1336;48.692;9.144;2024-03-23T07:03:35;11.10;97.20
2653;DHT22;1336;48.692;9.144;2024-03-23T07:04:26;11.10;97.20
2653;DHT22;1336;48.692;9.144;2024-03-23T07:05:17;11.10;97.20
2653;DHT22;1336;48.692;9.144;2024-03-23T07:06:09;11.20;97.20
2653;DHT22;1336;48.692;9.144;2024-03-23T07:07:01;11.20;97.20
2653;DHT22;1336;48.692;9.144;2024-03-23T07:07:52;11.10;97.20
2653;DHT22;1336;48.692;9.144;2024-03-23T07:08:43;11.10;97.20
2653;DHT22;1336;48.692;9.144;2024-03-23T07:09:33;11.20;97.20
2653;DHT22;1336;48.692;9.144;2024-03-23T07:10:25;11.20;97.20
2653;DHT22;1336;48.692;9.144;2024-03-23T07:11:18;11.20;97.20
2653;DHT22;1336;48.692;9.144;2024-03-23T07:12:10;11.20;97.20
2653;DHT22;1336;48.692;9.144;2024-03-23T07:13:01;11.20;97.20
2653;DHT22;1336;48.692;9.144;2024-03-23T07:13:53;11.20;97.20
2653;DHT22;1336;48.692;9.144;2024-03-23T07:14:45;11.20;97.20
2653;DHT22;1336;48.692;9.144;2024-03-23T07:15:35;11.20;97.20
2653;DHT22;1336;48.692;9.144;2024-03-23T07:16:26;11.20;97.20
2653;DHT22;1336;48.692;9.144;2024-03-23T07:17:17;11.30;97.20
2653;DHT22;1336;48.692;9.144;2024-03-23T07:18:11;11.30;97.20
2653;DHT22;1336;48.692;9.144;2024-03-23T07:19:01;11.30;97.20
2653;DHT22;1336;48.692;9.144;2024-03-23T07:19:52;11.30;97.20
2653;DHT22;1336;48.692;9.144;2024-03-23T07:20:52;11.30;97.20
2653;DHT22;1336;48.692;9.144;2024-03-23T07:21:44;11.30;97.20
2653;DHT22;1336;48.692;9.144;2024-03-23T07:22:34;11.30;97.20
2653;DHT22;1336;48.692;9.144;2024-03-23T07:23:25;11.30;97.20
2653;DHT22;1336;48.692;9.144;2024-03-23T07:24:16;11.30;97.20
2653;DHT22;1336;48.692;9.144;2024-03-23T07:25:08;11.20;97.20
2653;DHT22;1336;48.692;9.144;2024-03-23T07:25:58;11.20;97.20
2653;DHT22;1336;48.692;9.144;2024-03-23T07:26:49;11.20;97.20
2653;DHT22;1336;48.692;9.144;2024-03-23T07:27:41;11.20;97.20
2653;DHT22;1336;48.692;9.144;2024-03-23T07:28:33;11.20;97.20
2653;DHT22;1336;48.692;9.144;2024-03-23T07:29:25;11.20;97.20
2653;DHT22;1336;48.692;9.144;2024-03-23T07:30:16;11.30;97.20
2653;DHT22;1336;48.692;9.144;2024-03-23T07:31:07;11.30;97.20
2653;DHT22;1336;48.692;9.144;2024-03-23T07:32:00;11.40;97.20
2653;DHT22;1336;48.692;9.144;2024-03-23T07:32:50;11.40;97.20
2653;DHT22;1336;48.692;9.144;2024-03-23T07:33:46;11.40;97.20
2653;DHT22;1336;48.692;9.144;2024-03-23T07:34:37;11.50;97.20
2653;DHT22;1336;48.692;9.144;2024-03-23T07:35:29;11.60;97.20
2653;DHT22;1336;48.692;9.144;2024-03-23T07:36:20;11.60;97.20
2653;DHT22;1336;48.692;9.144;2024-03-23T07:37:11;11.60;97.20
2653;DHT22;1336;48.692;9.144;2024-03-23T07:38:02;11.60;97.20
2653;DHT22;1336;48.692;9.144;2024-03-23T07:38:55;11.60;97.20
2653;DHT22;1336;48.692;9.144;2024-03-23T07:39:47;11.60;97.20
2653;DHT22;1336;48.692;9.144;2024-03-23T07:40:38;11.60;97.20
2653;DHT22;1336;48.692;9.144;2024-03-23T07:41:29;11.60;97.20
2653;DHT22;1336;48.692;9.144;2024-03-23T07:42:21;11.60;97.20
2653;DHT22;1336;48.692;9.144;2024-03-23T07:43:11;11.50;97.20
2653;DHT22;1336;48.692;9.144;2024-03-23T07:44:03;11.50;97.20
2653;DHT22;1336;48.692;9.144;2024-03-23T07:44:54;11.40;97.20
2653;DHT22;1336;48.692;9.144;2024-03-23T07:45:51;11.40;97.20
2653;DHT22;1336;48.692;9.144;2024-03-23T07:46:43;11.40;97.20
2653;DHT22;1336;48.692;9.144;2024-03-23T07:47:34;11.40;97.20
2653;DHT22;1336;48.692;9.144;2024-03-23T07:48:25;11.30;97.20
2653;DHT22;1336;48.692;9.144;2024-03-23T07:49:17;11.30;97.20
2653;DHT22;1336;48.692;9.144;2024-03-23T07:50:09;11.30;97.20
2653;DHT22;1336;48.692;9.144;2024-03-23T07:51:02;11.30;97.20
2653;DHT22;1336;48.692;9.144;2024-03-23T07:51:54;11.30;97.20
2653;DHT22;1336;48.692;9.144;2024-03-23T07:52:45;11.30;97.20
2653;DHT22;1336;48.692;9.144;2024-03-23T07:53:36;11.40;97.20
2653;DHT22;1336;48.692;9.144;2024-03-23T07:54:27;11.40;97.20
2653;DHT22;1336;48.692;9.144;2024-03-23T07:55:19;11.50;97.20
2653;DHT22;1336;48.692;9.144;2024-03-23T07:56:10;11.50;97.20
2653;DHT22;1336;48.692;9.144;2024-03-23T07:57:01;11.60;97.20
2653;DHT22;1336;48.692;9.144;2024-03-23T07:57:52;11.60;97.20
2653;DHT22;1336;48.692;9.144;2024-03-23T07:58:44;11.60;97.20
2653;DHT22;1336;48.692;9.144;2024-03-23T07:59:36;11.70;97.20
2653;DHT22;1336;48.692;9.144;2024-03-23T08:00:26;11.70;97.20
2653;DHT22;1336;48.692;9.144;2024-03-23T08:01:17;11.70;97.20
2653;DHT22;1336;48.692;9.144;2024-03-23T08:02:08;11.80;97.20
2653;DHT22;1336;48.692;9.144;2024-03-23T08:03:01;11.80;97.20
2653;DHT22;1336;48.692;9.144;2024-03-23T08:03:52;11.80;97.20
2653;DHT22;1336;48.692;9.144;2024-03-23T08:04:45;11.90;97.20
2653;DHT22;1336;48.692;9.144;2024-03-23T08:05:35;11.90;97.20
2653;DHT22;1336;48.692;9.144;2024-03-23T08:06:26;12.00;97.20
2653;DHT22;1336;48.692;9.144;2024-03-23T08:07:18;11.90;97.20
2653;DHT22;1336;48.692;9.144;2024-03-23T08:08:08;11.90;97.20
2653;DHT22;1336;48.692;9.144;2024-03-23T08:08:59;11.90;97.20
2653;DHT22;1336;48.692;9.144;2024-03-23T08:09:50;11.90;97.20
2653;DHT22;1336;48.692;9.144;2024-03-23T08:10:49;11.80;97.20
2653;DHT22;1336;48.692;9.144;2024-03-23T08:11:39;11.60;97.20
2653;DHT22;1336;48.692;9.144;2024-03-23T08:12:30;11.60;97.20
2653;DHT22;1336;48.692;9.144;2024-03-23T08:13:21;11.50;97.20
2653;DHT22;1336;48.692;9.144;2024-03-23T08:14:12;11.50;97.20
2653;DHT22;1336;48.692;9.144;2024-03-23T08:15:05;11.50;97.20
2653;DHT22;1336;48.692;9.144;2024-03-23T08:15:59;11.50;97.20
2653;DHT22;1336;48.692;9.144;2024-03-23T08:16:50;11.50;97.20
2653;DHT22;1336;48.692;9.144;2024-03-23T08:17:41;11.50;97.20
2653;DHT22;1336;48.692;9.144;2024-03-23T08:18:33;11.50;97.20
2653;DHT22;1336;48.692;9.144;2024-03-23T08:19:24;11.50;97.20
2653;DHT22;1336;48.692;9.144;2024-03-23T08:20:16;11.40;97.20
2653;DHT22;1336;48.692;9.144;2024-03-23T08:21:07;11.40;97.20
2653;DHT22;1336;48.692;9.144;2024-03-23T08:21:59;11.40;97.20
2653;DHT22;1336;48.692;9.144;2024-03-23T08:22:50;11.40;97.20
2653;DHT22;1336;48.692;9.144;2024-03-23T08:23:40;11.40;97.20
2653;DHT22;1336;48.692;9.144;2024-03-23T08:24:31;11.40;97.20
2653;DHT22;1336;48.692;9.144;2024-03-23T08:25:22;11.40;97.20
2653;DHT22;1336;48.692;9.144;2024-03-23T08:26:16;11.40;97.20
2653;DHT22;1336;48.692;9.144;2024-03-23T08:27:08;11.40;97.20
2653;DHT22;1336;48.692;9.144;2024-03-23T08:27:58;11.40;97.20
2653;DHT22;1336;48.692;9.144;2024-03-23T08:28:49;11.30;97.20
2653;DHT22;1336;48.692;9.144;2024-03-23T08:29:41;11.30;97.20
2653;DHT22;1336;48.692;9.144;2024-03-23T08:30:32;11.30;97.20
2653;DHT22;1336;48.692;9.144;2024-03-23T08:31:22;11.30;97.20
2653;DHT22;1336;48.692;9.144;2024-03-23T08:32:13;11.30;97.20
2653;DHT22;1336;48.692;9.144;2024-03-23T08:33:04;11.30;97.20
2653;DHT22;1336;48.692;9.144;2024-03-23T08:33:56;11.30;97.20
2653;DHT22;1336;48.692;9.144;2024-03-23T08:34:46;11.30;97.20
2653;DHT22;1336;48.692;9.144;2024-03-23T08:35:39;11.30;97.20
2653;DHT22;1336;48.692;9.144;2024-03-23T08:36:29;11.30;97.20
2653;DHT22;1336;48.692;9.144;2024-03-23T08:37:21;11.20;97.20
2653;DHT22;1336;48.692;9.144;2024-03-23T08:38:12;11.20;97.20
2653;DHT22;1336;48.692;9.144;2024-03-23T08:39:02;11.10;97.20
2653;DHT22;1336;48.692;9.144;2024-03-23T08:39:53;11.00;97.20
2653;DHT22;1336;48.692;9.144;2024-03-23T08:40:44;11.00;97.20
2653;DHT22;1336;48.692;9.144;2024-03-23T08:41:36;11.00;97.20
2653;DHT22;1336;48.692;9.144;2024-03-23T08:42:26;11.00;97.20
2653;DHT22;1336;48.692;9.144;2024-03-23T08:43:17;11.00;97.20
2653;DHT22;1336;48.692;9.144;2024-03-23T08:44:08;11.00;97.20
2653;DHT22;1336;48.692;9.144;2024-03-23T08:45:00;11.00;97.20
2653;DHT22;1336;48.692;9.144;2024-03-23T08:45:50;11.10;97.20
2653;DHT22;1336;48.692;9.144;2024-03-23T08:46:43;11.10;97.20
2653;DHT22;1336;48.692;9.144;2024-03-23T08:47:35;11.00;97.20
2653;DHT22;1336;48.692;9.144;2024-03-23T08:48:26;11.00;97.20
2653;DHT22;1336;48.692;9.144;2024-03-23T08:49:18;11.00;97.20
2653;DHT22;1336;48.692;9.144;2024-03-23T08:50:09;11.00;97.20
2653;DHT22;1336;48.692;9.144;2024-03-23T08:51:03;11.00;97.20
2653;DHT22;1336;48.692;9.144;2024-03-23T08:51:54;11.10;97.20
2653;DHT22;1336;48.692;9.144;2024-03-23T08:52:45;11.10;97.20
2653;DHT22;1336;48.692;9.144;2024-03-23T08:53:36;11.00;97.20
2653;DHT22;1336;48.692;9.144;2024-03-23T08:54:27;11.00;97.20
2653;DHT22;1336;48.692;9.144;2024-03-23T08:55:19;11.00;97.20
2653;DHT22;1336;48.692;9.144;2024-03-23T08:56:11;11.00;97.20
2653;DHT22;1336;48.692;9.144;2024-03-23T08:57:02;11.00;97.20
2653;DHT22;1336;48.692;9.144;2024-03-23T08:57:53;11.00;97.20
2653;DHT22;1336;48.692;9.144;2024-03-23T08:58:43;11.00;97.20
2653;DHT22;1336;48.692;9.144;2024-03-23T08:59:37;11.00;97.20
2653;DHT22;1336;48.692;9.144;2024-03-23T09:00:28;11.00;97.20
2653;DHT22;1336;48.692;9.144;2024-03-23T09:01:18;11.10;97.20
2653;DHT22;1336;48.692;9.144;2024-03-23T09:02:09;11.10;97.20
2653;DHT22;1336;48.692;9.144;2024-03-23T09:03:01;11.20;97.20
2653;DHT22;1336;48.692;9.144;2024-03-23T09:03:52;11.30;97.20
2653;DHT22;1336;48.692;9.144;2024-03-23T09:04:44;11.30;97.20
2653;DHT22;1336;48.692;9.144;2024-03-23T09:05:39;11.40;97.20
2653;DHT22;1336;48.692;9.144;2024-03-23T09:06:32;11.40;97.20
2653;DHT22;1336;48.692;9.144;2024-03-23T09:07:22;11.50;97.20
2653;DHT22;1336;48.692;9.144;2024-03-23T09:08:13;11.50;97.20
2653;DHT22;1336;48.692;9.144;2024-03-23T09:09:04;11.50;97.20
2653;DHT22;1336;48.692;9.144;2024-03-23T09:09:56;11.50;97.20
2653;DHT22;1336;48.692;9.144;2024-03-23T09:10:47;11.50;97.20
2653;DHT22;1336;48.692;9.144;2024-03-23T09:11:38;11.50;97.20
2653;DHT22;1336;48.692;9.144;2024-03-23T09:12:29;11.40;97.20
2653;DHT22;1336;48.692;9.144;2024-03-23T09:13:20;11.40;97.20
2653;DHT22;1336;48.692;9.144;2024-03-23T09:14:11;11.40;97.20
2653;DHT22;1336;48.692;9.144;2024-03-23T09:15:02;11.40;97.20
2653;DHT22;1336;48.692;9.144;2024-03-23T09:15:53;11.30;97.20
2653;DHT22;1336;48.692;9.144;2024-03-23T09:16:49;11.30;97.20
2653;DHT22;1336;48.692;9.144;2024-03-23T09:17:41;11.30;97.20
2653;DHT22;1336;48.692;9.144;2024-03-23T09:18:33;11.30;97.20
2653;DHT22;1336;48.692;9.144;2024-03-23T09:19:26;11.30;97.20
2653;DHT22;1336;48.692;9.144;2024-03-23T09:20:17;11.40;97.20
2653;DHT22;1336;48.692;9.144;2024-03-23T09:21:11;11.40;97.20
2653;DHT22;1336;48.692;9.144;2024-03-23T09:22:05;11.40;97.20
2653;DHT22;1336;48.692;9.144;2024-03-23T09:22:55;11.40;97.20
2653;DHT22;1336;48.692;9.144;2024-03-23T09:23:46;11.40;97.20
2653;DHT22;1336;48.692;9.144;2024-03-23T09:24:38;11.40;97.20
2653;DHT22;1336;48.692;9.144;2024-03-23T09:25:30;11.40;97.20
2653;DHT22;1336;48.692;9.144;2024-03-23T09:26:21;11.50;97.20
2653;DHT22;1336;48.692;9.144;2024-03-23T09:27:11;11.40;97.20
2653;DHT22;1336;48.692;9.144;2024-03-23T09:28:02;11.40;97.20
2653;DHT22;1336;48.692;9.144;2024-03-23T09:28:54;11.50;97.20
2653;DHT22;1336;48.692;9.144;2024-03-23T09:29:45;11.50;97.20
2653;DHT22;1336;48.692;9.144;2024-03-23T09:30:36;11.60;97.20
2653;DHT22;1336;48.692;9.144;2024-03-23T09:31:32;11.60;97.20
2653;DHT22;1336;48.692;9.144;2024-03-23T09:32:24;11.70;97.20
2653;DHT22;1336;48.692;9.144;2024-03-23T09:33:14;11.70;97.20
2653;DHT22;1336;48.692;9.144;2024-03-23T09:34:05;11.80;97.20
2653;DHT22;1336;48.692;9.144;2024-03-23T09:34:56;11.80;97.20
2653;DHT22;1336;48.692;9.144;2024-03-23T09:35:48;11.80;97.20
2653;DHT22;1336;48.692;9.144;2024-03-23T09:36:38;11.90;97.20
2653;DHT22;1336;48.692;9.144;2024-03-23T09:37:31;11.90;97.20
2653;DHT22;1336;48.692;9.144;2024-03-23T09:38:22;11.90;97.20
2653;DHT22;1336;48.692;9.144;2024-03-23T09:39:14;11.90;97.20
2653;DHT22;1336;48.692;9.144;2024-03-23T09:40:05;11.90;97.20
2653;DHT22;1336;48.692;9.144;2024-03-23T09:40:58;11.90;97.20
2653;DHT22;1336;48.692;9.144;2024-03-23T09:41:49;11.90;97.20
2653;DHT22;1336;48.692;9.144;2024-03-23T09:42:42;11.90;97.20
2653;DHT22;1336;48.692;9.144;2024-03-23T09:43:37;11.90;97.20
2653;DHT22;1336;48.692;9.144;2024-03-23T09:44:27;12.00;97.20
2653;DHT22;1336;48.692;9.144;2024-03-23T09:45:21;12.00;97.20
2653;DHT22;1336;48.692;9.144;2024-03-23T09:46:13;12.10;97.20
2653;DHT22;1336;48.692;9.144;2024-03-23T09:47:04;12.10;97.20
2653;DHT22;1336;48.692;9.144;2024-03-23T09:47:56;12.20;97.20
2653;DHT22;1336;48.692;9.144;2024-03-23T09:48:47;12.20;97.20
2653;DHT22;1336;48.692;9.144;2024-03-23T09:49:38;12.20;97.20
2653;DHT22;1336;48.692;9.144;2024-03-23T09:50:31;12.20;97.20
2653;DHT22;1336;48.692;9.144;2024-03-23T09:51:21;12.30;97.20
2653;DHT22;1336;48.692;9.144;2024-03-23T09:52:12;12.30;97.20
2653;DHT22;1336;48.692;9.144;2024-03-23T09:53:05;12.30;97.20
2653;DHT22;1336;48.692;9.144;2024-03-23T09:53:57;12.40;97.20
2653;DHT22;1336;48.692;9.144;2024-03-23T09:54:48;12.40;97.20
2653;DHT22;1336;48.692;9.144;2024-03-23T09:55:40;12.40;97.20
2653;DHT22;1336;48.692;9.144;2024-03-23T09:56:31;12.40;97.20
2653;DHT22;1336;48.692;9.144;2024-03-23T09:57:22;12.30;97.20
2653;DHT22;1336;48.692;9.144;2024-03-23T09:58:16;12.30;97.20
2653;DHT22;1336;48.692;9.144;2024-03-23T09:59:07;12.30;97.20
2653;DHT22;1336;48.692;9.144;2024-03-23T09:59:58;12.20;97.20
2653;DHT22;1336;48.692;9.144;2024-03-23T10:00:48;12.20;97.20
2653;DHT22;1336;48.692;9.144;2024-03-23T10:01:40;12.20;97.20
2653;DHT22;1336;48.692;9.144;2024-03-23T10:02:31;12.20;97.20
2653;DHT22;1336;48.692;9.144;2024-03-23T10:03:22;12.10;97.20
2653;DHT22;1336;48.692;9.144;2024-03-23T10:04:37;12.10;97.20
2653;DHT22;1336;48.692;9.144;2024-03-23T10:05:30;12.10;97.20
2653;DHT22;1336;48.692;9.144;2024-03-23T10:06:22;12.10;97.20
2653;DHT22;1336;48.692;9.144;2024-03-23T10:07:17;12.10;97.20
2653;DHT22;1336;48.692;9.144;2024-03-23T10:08:19;12.10;97.20
2653;DHT22;1336;48.692;9.144;2024-03-23T10:09:16;12.10;97.20
2653;DHT22;1336;48.692;9.144;2024-03-23T10:10:11;12.20;97.20
2653;DHT22;1336;48.692;9.144;2024-03-23T10:11:13;12.20;97.20
2653;DHT22;1336;48.692;9.144;2024-03-23T10:12:10;12.20;97.20
2653;DHT22;1336;48.692;9.144;2024-03-23T10:13:02;12.20;97.20
2653;DHT22;1336;48.692;9.144;2024-03-23T10:13:53;12.20;97.20
2653;DHT22;1336;48.692;9.144;2024-03-23T10:14:46;12.30;97.20
2653;DHT22;1336;48.692;9.144;2024-03-23T10:15:37;12.30;97.20
2653;DHT22;1336;48.692;9.144;2024-03-23T10:16:27;12.40;97.20
2653;DHT22;1336;48.692;9.144;2024-03-23T10:17:20;12.40;97.20
2653;DHT22;1336;48.692;9.144;2024-03-23T10:18:18;12.50;97.20
2653;DHT22;1336;48.692;9.144;2024-03-23T10:19:09;12.60;97.20
2653;DHT22;1336;48.692;9.144;2024-03-23T10:19:59;12.70;97.20
2653;DHT22;1336;48.692;9.144;2024-03-23T10:21:06;12.80;97.20
2653;DHT22;1336;48.692;9.144;2024-03-23T10:21:58;12.90;97.20
2653;DHT22;1336;48.692;9.144;2024-03-23T10:24:38;13.00;97.20
2653;DHT22;1336;48.692;9.144;2024-03-23T10:25:29;12.90;97.20
2653;DHT22;1336;48.692;9.144;2024-03-23T10:26:21;12.90;97.20
2653;DHT22;1336;48.692;9.144;2024-03-23T10:27:15;12.90;97.20
2653;DHT22;1336;48.692;9.144;2024-03-23T10:28:06;12.80;97.20
2653;DHT22;1336;48.692;9.144;2024-03-23T10:28:59;12.80;97.20
2653;DHT22;1336;48.692;9.144;2024-03-23T10:29:51;12.80;97.20
2653;DHT22;1336;48.692;9.144;2024-03-23T10:30:42;12.70;97.20
2653;DHT22;1336;48.692;9.144;2024-03-23T10:31:33;12.60;97.20
2653;DHT22;1336;48.692;9.144;2024-03-23T10:32:26;12.50;97.20
2653;DHT22;1336;48.692;9.144;2024-03-23T10:33:18;12.50;97.20
2653;DHT22;1336;48.692;9.144;2024-03-23T10:34:12;12.50;97.20
2653;DHT22;1336;48.692;9.144;2024-03-23T10:35:16;12.50;97.20
2653;DHT22;1336;48.692;9.144;2024-03-23T10:36:09;12.40;97.20
2653;DHT22;1336;48.692;9.144;2024-03-23T10:37:02;12.40;97.20
2653;DHT22;1336;48.692;9.144;2024-03-23T10:37:53;12.50;97.20
2653;DHT22;1336;48.692;9.144;2024-03-23T10:38:45;12.50;97.20
2653;DHT22;1336;48.692;9.144;2024-03-23T10:39:39;12.50;97.20
2653;DHT22;1336;48.692;9.144;2024-03-23T10:40:31;12.40;97.20
2653;DHT22;1336;48.692;9.144;2024-03-23T10:41:26;12.40;97.20
2653;DHT22;1336;48.692;9.144;2024-03-23T10:42:18;12.40;97.20
2653;DHT22;1336;48.692;9.144;2024-03-23T10:44:59;12.50;97.20
2653;DHT22;1336;48.692;9.144;2024-03-23T10:45:50;12.40;97.20
2653;DHT22;1336;48.692;9.144;2024-03-23T10:46:42;12.40;97.20
2653;DHT22;1336;48.692;9.144;2024-03-23T10:47:34;12.50;97.20
2653;DHT22;1336;48.692;9.144;2024-03-23T10:48:26;12.50;97.20
2653;DHT22;1336;48.692;9.144;2024-03-23T10:49:16;12.50;97.20
2653;DHT22;1336;48.692;9.144;2024-03-23T10:50:08;12.60;97.20
2653;DHT22;1336;48.692;9.144;2024-03-23T10:51:00;12.60;97.20
2653;DHT22;1336;48.692;9.144;2024-03-23T10:51:51;12.60;97.20
2653;DHT22;1336;48.692;9.144;2024-03-23T10:52:45;12.60;97.20
2653;DHT22;1336;48.692;9.144;2024-03-23T10:53:36;12.50;97.20
2653;DHT22;1336;48.692;9.144;2024-03-23T10:54:30;12.50;97.20
2653;DHT22;1336;48.692;9.144;2024-03-23T10:55:24;12.40;97.20
2653;DHT22;1336;48.692;9.144;2024-03-23T10:56:15;12.30;97.20
2653;DHT22;1336;48.692;9.144;2024-03-23T10:57:08;12.20;97.20
2653;DHT22;1336;48.692;9.144;2024-03-23T10:58:01;12.10;97.20
2653;DHT22;1336;48.692;9.144;2024-03-23T10:58:55;11.90;97.20
2653;DHT22;1336;48.692;9.144;2024-03-23T11:01:33;11.60;97.20
2653;DHT22;1336;48.692;9.144;2024-03-23T11:02:26;11.40;97.20
2653;DHT22;1336;48.692;9.144;2024-03-23T11:03:33;11.10;97.20
2653;DHT22;1336;48.692;9.144;2024-03-23T11:04:34;10.80;97.20
2653;DHT22;1336;48.692;9.144;2024-03-23T11:05:29;10.70;97.20
2653;DHT22;1336;48.692;9.144;2024-03-23T11:06:35;10.60;97.20
2653;DHT22;1336;48.692;9.144;2024-03-23T11:07:30;10.30;97.20
2653;DHT22;1336;48.692;9.144;2024-03-23T11:08:30;10.20;97.20
2653;DHT22;1336;48.692;9.144;2024-03-23T11:09:38;9.90;97.20
2653;DHT22;1336;48.692;9.144;2024-03-23T11:10:32;9.80;97.20
2653;DHT22;1336;48.692;9.144;2024-03-23T11:11:25;9.80;97.20
2653;DHT22;1336;48.692;9.144;2024-03-23T11:12:34;9.70;97.20
2653;DHT22;1336;48.692;9.144;2024-03-23T11:13:25;9.70;97.20
2653;DHT22;1336;48.692;9.144;2024-03-23T11:14:22;9.70;97.20
2653;DHT22;1336;48.692;9.144;2024-03-23T11:15:14;9.70;97.20
2653;DHT22;1336;48.692;9.144;2024-03-23T11:16:13;9.70;97.20
2653;DHT22;1336;48.692;9.144;2024-03-23T11:17:08;9.80;97.20
2653;DHT22;1336;48.692;9.144;2024-03-23T11:18:04;9.80;97.20
2653;DHT22;1336;48.692;9.144;2024-03-23T11:20:32;9.80;97.20
2653;DHT22;1336;48.692;9.144;2024-03-23T11:21:51;9.90;97.20
2653;DHT22;1336;48.692;9.144;2024-03-23T11:22:44;10.00;97.20
2653;DHT22;1336;48.692;9.144;2024-03-23T11:23:35;10.00;97.20
2653;DHT22;1336;48.692;9.144;2024-03-23T11:24:26;10.10;97.20
2653;DHT22;1336;48.692;9.144;2024-03-23T11:25:17;10.20;97.20
2653;DHT22;1336;48.692;9.144;2024-03-23T11:26:12;10.30;97.20
2653;DHT22;1336;48.692;9.144;2024-03-23T11:27:15;10.30;97.20
2653;DHT22;1336;48.692;9.144;2024-03-23T11:28:10;10.20;97.20
2653;DHT22;1336;48.692;9.144;2024-03-23T11:29:09;10.30;97.20
2653;DHT22;1336;48.692;9.144;2024-03-23T11:30:13;10.20;97.20
2653;DHT22;1336;48.692;9.144;2024-03-23T11:31:09;10.20;97.20
2653;DHT22;1336;48.692;9.144;2024-03-23T11:32:01;10.20;97.20
2653;DHT22;1336;48.692;9.144;2024-03-23T11:32:54;10.20;97.20
2653;DHT22;1336;48.692;9.144;2024-03-23T11:33:46;10.20;97.20
2653;DHT22;1336;48.692;9.144;2024-03-23T11:34:37;10.30;97.20
2653;DHT22;1336;48.692;9.144;2024-03-23T11:35:30;10.40;97.20
2653;DHT22;1336;48.692;9.144;2024-03-23T11:36:21;10.40;97.20
2653;DHT22;1336;48.692;9.144;2024-03-23T11:37:12;10.50;97.20
2653;DHT22;1336;48.692;9.144;2024-03-23T11:38:06;10.50;97.20
2653;DHT22;1336;48.692;9.144;2024-03-23T11:38:57;10.60;97.20
2653;DHT22;1336;48.692;9.144;2024-03-23T11:39:47;10.60;97.20
2653;DHT22;1336;48.692;9.144;2024-03-23T11:40:40;10.60;97.20
2653;DHT22;1336;48.692;9.144;2024-03-23T11:41:33;10.60;97.20
2653;DHT22;1336;48.692;9.144;2024-03-23T11:42:24;10.70;97.20
2653;DHT22;1336;48.692;9.144;2024-03-23T11:43:16;10.70;97.20
2653;DHT22;1336;48.692;9.144;2024-03-23T11:44:15;10.80;97.20
2653;DHT22;1336;48.692;9.144;2024-03-23T11:45:08;10.80;97.20
2653;DHT22;1336;48.692;9.144;2024-03-23T11:45:59;10.90;97.20
2653;DHT22;1336;48.692;9.144;2024-03-23T11:46:53;10.90;97.20
2653;DHT22;1336;48.692;9.144;2024-03-23T11:47:44;10.90;97.20
2653;DHT22;1336;48.692;9.144;2024-03-23T11:48:35;10.90;97.20
2653;DHT22;1336;48.692;9.144;2024-03-23T11:49:27;10.90;97.20